Terminal Aerodrome Forecast
Issued by NWS

Home | Current Version | Previous Version | Text Only | Print | Product List | Glossary On
Versions: 1 2 3 4 5 6 7 8 9 10 11 12
546
FTUS42 TJSJ 111738
TAFJBQ
TAF
TJBQ 111738Z 1118/1218 07017G18KT P6SM SCT050
     FM112300 10008KT P6SM FEW040
     FM121300 08008KT P6SM FEW030 FEW050=

USA.gov is the U.S. government's official web portal to all federal, state and local government web resources and services.